sensor_id;sensor_type;location;lat;lon;timestamp;pressure;altitude;pressure_sealevel;temperature;humidity
49877;BME280;35771;48.978;9.294;2022-11-11T07:29:13;100660.16;;;1.66;100.00
49877;BME280;35771;48.978;9.294;2022-11-11T07:31:41;100682.25;;;2.00;100.00
49877;BME280;35771;48.978;9.294;2022-11-11T07:34:08;100663.13;;;2.06;100.00
49877;BME280;35771;48.978;9.294;2022-11-11T07:36:34;100687.78;;;2.27;100.00
49877;BME280;35771;48.978;9.294;2022-11-11T07:39:01;100684.88;;;2.45;100.00
49877;BME280;35771;48.978;9.294;2022-11-11T07:41:28;100657.09;;;2.46;100.00
49877;BME280;35771;48.978;9.294;2022-11-11T07:43:54;100685.28;;;2.82;100.00
49877;BME280;35771;48.978;9.294;2022-11-11T07:46:23;100672.38;;;2.87;100.00
49877;BME280;35771;48.978;9.294;2022-11-11T07:48:50;100678.31;;;3.07;100.00
49877;BME280;35771;48.978;9.294;2022-11-11T07:51:16;100672.94;;;3.07;100.00
49877;BME280;35771;48.978;9.294;2022-11-11T07:53:43;100664.22;;;3.03;100.00
49877;BME280;35771;48.978;9.294;2022-11-11T07:56:09;100678.88;;;3.12;100.00
49877;BME280;35771;48.978;9.294;2022-11-11T07:58:36;100676.66;;;3.18;100.00
49877;BME280;35771;48.978;9.294;2022-11-11T08:01:02;100688.63;;;3.27;100.00
49877;BME280;35771;48.978;9.294;2022-11-11T08:03:30;100674.47;;;3.38;100.00
49877;BME280;35771;48.978;9.294;2022-11-11T08:05:57;100679.44;;;3.44;100.00
49877;BME280;35771;48.978;9.294;2022-11-11T08:08:24;100685.03;;;3.41;100.00
49877;BME280;35771;48.978;9.294;2022-11-11T08:10:53;100655.53;;;3.27;100.00
49877;BME280;35771;48.978;9.294;2022-11-11T08:13:20;100683.44;;;3.51;100.00
49877;BME280;35771;48.978;9.294;2022-11-11T08:16:13;100653.72;;;3.40;100.00
49877;BME280;35771;48.978;9.294;2022-11-11T08:18:42;100674.00;;;3.59;100.00
49877;BME280;35771;48.978;9.294;2022-11-11T08:21:08;100684.19;;;3.53;100.00
49877;BME280;35771;48.978;9.294;2022-11-11T08:23:35;100681.31;;;3.57;100.00
49877;BME280;35771;48.978;9.294;2022-11-11T08:26:03;100671.22;;;3.60;100.00
49877;BME280;35771;48.978;9.294;2022-11-11T08:28:32;100664.84;;;3.61;100.00
49877;BME280;35771;48.978;9.294;2022-11-11T08:31:00;100693.88;;;3.83;100.00
49877;BME280;35771;48.978;9.294;2022-11-11T08:33:27;100687.00;;;3.92;100.00
49877;BME280;35771;48.978;9.294;2022-11-11T08:35:58;100668.16;;;3.92;100.00
49877;BME280;35771;48.978;9.294;2022-11-11T08:38:24;100690.25;;;4.10;100.00
49877;BME280;35771;48.978;9.294;2022-11-11T08:40:51;100687.88;;;4.18;100.00
49877;BME280;35771;48.978;9.294;2022-11-11T08:43:18;100696.84;;;4.32;100.00
49877;BME280;35771;48.978;9.294;2022-11-11T08:45:45;100696.50;;;4.36;100.00
49877;BME280;35771;48.978;9.294;2022-11-11T08:48:12;100692.75;;;4.52;100.00
49877;BME280;35771;48.978;9.294;2022-11-11T08:50:39;100679.72;;;4.58;100.00
49877;BME280;35771;48.978;9.294;2022-11-11T08:53:08;100692.19;;;4.85;100.00
49877;BME280;35771;48.978;9.294;2022-11-11T08:55:36;100672.25;;;4.88;100.00
49877;BME280;35771;48.978;9.294;2022-11-11T08:58:04;100688.28;;;5.26;100.00
49877;BME280;35771;48.978;9.294;2022-11-11T09:00:32;100686.91;;;5.45;100.00
49877;BME280;35771;48.978;9.294;2022-11-11T09:03:00;100661.50;;;5.60;100.00
49877;BME280;35771;48.978;9.294;2022-11-11T09:05:27;100675.44;;;5.90;100.00
49877;BME280;35771;48.978;9.294;2022-11-11T09:07:53;100665.81;;;5.98;100.00
49877;BME280;35771;48.978;9.294;2022-11-11T09:10:21;100683.44;;;6.27;100.00
49877;BME280;35771;48.978;9.294;2022-11-11T09:12:48;100669.81;;;6.40;100.00
49877;BME280;35771;48.978;9.294;2022-11-11T09:15:14;100671.69;;;6.50;100.00
49877;BME280;35771;48.978;9.294;2022-11-11T09:17:45;100644.69;;;6.50;100.00
49877;BME280;35771;48.978;9.294;2022-11-11T09:20:12;100647.00;;;6.66;100.00
49877;BME280;35771;48.978;9.294;2022-11-11T09:22:41;100677.34;;;6.93;100.00
49877;BME280;35771;48.978;9.294;2022-11-11T09:25:08;100648.72;;;6.90;100.00
49877;BME280;35771;48.978;9.294;2022-11-11T09:27:37;100656.78;;;7.13;100.00
49877;BME280;35771;48.978;9.294;2022-11-11T09:30:05;100662.78;;;7.16;100.00
49877;BME280;35771;48.978;9.294;2022-11-11T09:32:33;100658.97;;;7.30;100.00
49877;BME280;35771;48.978;9.294;2022-11-11T09:34:59;100660.25;;;7.47;100.00
49877;BME280;35771;48.978;9.294;2022-11-11T09:37:26;100669.19;;;7.59;100.00
49877;BME280;35771;48.978;9.294;2022-11-11T09:39:53;100642.78;;;7.51;100.00
49877;BME280;35771;48.978;9.294;2022-11-11T09:42:31;100664.94;;;7.77;100.00
49877;BME280;35771;48.978;9.294;2022-11-11T09:45:17;100672.91;;;7.79;100.00
49877;BME280;35771;48.978;9.294;2022-11-11T09:47:51;100641.81;;;7.73;100.00
49877;BME280;35771;48.978;9.294;2022-11-11T09:50:21;100662.91;;;7.91;100.00
49877;BME280;35771;48.978;9.294;2022-11-11T09:52:53;100644.53;;;7.94;100.00
49877;BME280;35771;48.978;9.294;2022-11-11T09:55:26;100649.53;;;7.99;100.00
49877;BME280;35771;48.978;9.294;2022-11-11T09:57:57;100650.34;;;8.11;100.00
49877;BME280;35771;48.978;9.294;2022-11-11T10:00:27;100656.88;;;8.29;100.00
49877;BME280;35771;48.978;9.294;2022-11-11T10:02:59;100657.22;;;8.36;100.00
49877;BME280;35771;48.978;9.294;2022-11-11T10:05:33;100652.97;;;8.43;100.00
49877;BME280;35771;48.978;9.294;2022-11-11T10:08:05;100643.59;;;8.47;100.00
49877;BME280;35771;48.978;9.294;2022-11-11T10:10:38;100648.94;;;8.59;100.00
49877;BME280;35771;48.978;9.294;2022-11-11T10:13:11;100655.84;;;8.73;100.00
49877;BME280;35771;48.978;9.294;2022-11-11T10:15:48;100654.84;;;8.74;100.00
49877;BME280;35771;48.978;9.294;2022-11-11T10:18:28;100637.97;;;8.70;100.00
49877;BME280;35771;48.978;9.294;2022-11-11T10:20:57;100662.72;;;8.86;100.00
49877;BME280;35771;48.978;9.294;2022-11-11T10:23:27;100656.19;;;8.89;100.00
49877;BME280;35771;48.978;9.294;2022-11-11T10:25:56;100657.22;;;8.98;100.00
49877;BME280;35771;48.978;9.294;2022-11-11T10:28:30;100656.81;;;9.02;100.00
49877;BME280;35771;48.978;9.294;2022-11-11T10:31:00;100643.50;;;8.99;100.00
49877;BME280;35771;48.978;9.294;2022-11-11T10:33:31;100643.66;;;8.98;100.00
49877;BME280;35771;48.978;9.294;2022-11-11T10:36:02;100654.56;;;9.17;100.00
49877;BME280;35771;48.978;9.294;2022-11-11T10:38:33;100662.84;;;9.26;100.00
49877;BME280;35771;48.978;9.294;2022-11-11T10:41:10;100638.41;;;9.26;100.00
49877;BME280;35771;48.978;9.294;2022-11-11T10:43:44;100635.88;;;9.44;100.00
49877;BME280;35771;48.978;9.294;2022-11-11T10:46:14;100630.59;;;9.52;100.00
49877;BME280;35771;48.978;9.294;2022-11-11T10:48:51;100640.59;;;9.71;100.00
49877;BME280;35771;48.978;9.294;2022-11-11T10:51:21;100625.47;;;9.68;100.00
49877;BME280;35771;48.978;9.294;2022-11-11T10:53:56;100639.31;;;9.75;100.00
49877;BME280;35771;48.978;9.294;2022-11-11T10:56:27;100616.31;;;9.60;100.00
49877;BME280;35771;48.978;9.294;2022-11-11T10:59:00;100612.03;;;9.67;100.00
49877;BME280;35771;48.978;9.294;2022-11-11T11:01:33;100618.72;;;9.82;100.00
49877;BME280;35771;48.978;9.294;2022-11-11T11:04:07;100615.44;;;9.88;100.00
49877;BME280;35771;48.978;9.294;2022-11-11T11:06:36;100626.56;;;10.05;100.00
49877;BME280;35771;48.978;9.294;2022-11-11T11:09:13;100629.84;;;10.08;100.00
49877;BME280;35771;48.978;9.294;2022-11-11T11:11:47;100605.13;;;10.02;100.00
49877;BME280;35771;48.978;9.294;2022-11-11T11:14:19;100595.25;;;10.01;100.00
49877;BME280;35771;48.978;9.294;2022-11-11T11:16:49;100594.81;;;10.05;100.00
49877;BME280;35771;48.978;9.294;2022-11-11T11:19:21;100590.53;;;10.03;100.00
49877;BME280;35771;48.978;9.294;2022-11-11T11:21:50;100612.53;;;10.19;100.00
49877;BME280;35771;48.978;9.294;2022-11-11T11:24:23;100601.22;;;10.14;100.00
49877;BME280;35771;48.978;9.294;2022-11-11T11:26:51;100604.22;;;10.21;100.00
49877;BME280;35771;48.978;9.294;2022-11-11T11:29:30;100604.63;;;10.26;100.00
49877;BME280;35771;48.978;9.294;2022-11-11T11:32:14;100581.00;;;10.26;100.00
49877;BME280;35771;48.978;9.294;2022-11-11T11:34:43;100595.03;;;10.41;100.00
49877;BME280;35771;48.978;9.294;2022-11-11T11:37:11;100608.13;;;10.56;100.00
49877;BME280;35771;48.978;9.294;2022-11-11T11:39:38;100596.41;;;10.55;100.00
49877;BME280;35771;48.978;9.294;2022-11-11T11:42:06;100602.09;;;10.62;100.00
49877;BME280;35771;48.978;9.294;2022-11-11T11:44:34;100606.91;;;10.78;100.00
49877;BME280;35771;48.978;9.294;2022-11-11T11:47:20;100606.84;;;10.88;100.00
49877;BME280;35771;48.978;9.294;2022-11-11T11:50:10;100610.81;;;10.93;100.00
49877;BME280;35771;48.978;9.294;2022-11-11T11:52:48;100616.91;;;11.05;100.00
49877;BME280;35771;48.978;9.294;2022-11-11T11:55:23;100606.50;;;11.01;100.00
49877;BME280;35771;48.978;9.294;2022-11-11T11:57:59;100620.44;;;11.15;100.00
49877;BME280;35771;48.978;9.294;2022-11-11T12:00:30;100620.44;;;11.15;100.00
49877;BME280;35771;48.978;9.294;2022-11-11T12:03:31;100617.78;;;11.24;100.00
49877;BME280;35771;48.978;9.294;2022-11-11T12:06:10;100597.00;;;11.23;100.00
49877;BME280;35771;48.978;9.294;2022-11-11T12:08:50;100587.69;;;11.25;100.00
49877;BME280;35771;48.978;9.294;2022-11-11T12:11:27;100607.22;;;11.39;100.00
49877;BME280;35771;48.978;9.294;2022-11-11T12:14:16;100610.00;;;11.47;100.00
49877;BME280;35771;48.978;9.294;2022-11-11T12:16:53;100583.56;;;11.39;100.00
49877;BME280;35771;48.978;9.294;2022-11-11T12:19:42;100597.19;;;11.39;100.00
49877;BME280;35771;48.978;9.294;2022-11-11T12:22:25;100581.41;;;11.43;100.00
49877;BME280;35771;48.978;9.294;2022-11-11T12:25:02;100602.16;;;11.62;100.00
49877;BME280;35771;48.978;9.294;2022-11-11T12:27:41;100612.75;;;11.65;100.00
49877;BME280;35771;48.978;9.294;2022-11-11T12:30:16;100600.22;;;11.72;100.00
49877;BME280;35771;48.978;9.294;2022-11-11T12:32:57;100597.28;;;11.65;100.00
49877;BME280;35771;48.978;9.294;2022-11-11T12:35:51;100581.31;;;11.52;100.00
49877;BME280;35771;48.978;9.294;2022-11-11T12:38:42;100579.00;;;11.58;100.00
49877;BME280;35771;48.978;9.294;2022-11-11T12:41:29;100586.44;;;11.74;100.00
49877;BME280;35771;48.978;9.294;2022-11-11T12:44:04;100592.59;;;11.76;100.00
49877;BME280;35771;48.978;9.294;2022-11-11T12:46:46;100583.78;;;11.82;100.00
49877;BME280;35771;48.978;9.294;2022-11-11T12:49:29;100570.56;;;11.69;100.00
49877;BME280;35771;48.978;9.294;2022-11-11T12:52:09;100579.25;;;11.73;100.00
49877;BME280;35771;48.978;9.294;2022-11-11T12:54:47;100571.88;;;11.65;100.00
49877;BME280;35771;48.978;9.294;2022-11-11T12:57:24;100581.47;;;11.69;100.00
49877;BME280;35771;48.978;9.294;2022-11-11T13:00:03;100586.91;;;11.69;100.00
49877;BME280;35771;48.978;9.294;2022-11-11T13:02:41;100558.56;;;11.62;100.00
49877;BME280;35771;48.978;9.294;2022-11-11T13:05:14;100575.66;;;11.90;100.00
49877;BME280;35771;48.978;9.294;2022-11-11T13:08:15;100568.59;;;11.97;100.00
49877;BME280;35771;48.978;9.294;2022-11-11T13:10:51;100558.59;;;12.06;100.00
49877;BME280;35771;48.978;9.294;2022-11-11T13:13:37;100554.84;;;12.07;100.00
49877;BME280;35771;48.978;9.294;2022-11-11T13:16:06;100559.75;;;12.30;100.00
49877;BME280;35771;48.978;9.294;2022-11-11T13:18:42;100549.31;;;12.17;100.00
49877;BME280;35771;48.978;9.294;2022-11-11T13:21:13;100574.75;;;12.26;100.00
49877;BME280;35771;48.978;9.294;2022-11-11T13:23:43;100577.72;;;12.14;100.00
49877;BME280;35771;48.978;9.294;2022-11-11T13:26:22;100548.41;;;11.90;100.00
49877;BME280;35771;48.978;9.294;2022-11-11T13:28:57;100569.50;;;12.06;100.00
49877;BME280;35771;48.978;9.294;2022-11-11T13:31:32;100538.50;;;11.89;100.00
49877;BME280;35771;48.978;9.294;2022-11-11T13:34:03;100571.00;;;11.82;100.00
49877;BME280;35771;48.978;9.294;2022-11-11T13:36:38;100557.88;;;11.78;100.00
49877;BME280;35771;48.978;9.294;2022-11-11T13:39:21;100557.69;;;11.79;100.00
49877;BME280;35771;48.978;9.294;2022-11-11T13:41:51;100538.81;;;11.60;100.00
49877;BME280;35771;48.978;9.294;2022-11-11T13:44:22;100548.56;;;11.62;100.00
49877;BME280;35771;48.978;9.294;2022-11-11T13:46:50;100544.59;;;11.57;100.00
49877;BME280;35771;48.978;9.294;2022-11-11T13:49:22;100546.00;;;11.61;100.00
49877;BME280;35771;48.978;9.294;2022-11-11T13:51:56;100538.34;;;11.64;100.00
49877;BME280;35771;48.978;9.294;2022-11-11T13:54:26;100577.31;;;11.83;100.00
49877;BME280;35771;48.978;9.294;2022-11-11T13:57:02;100552.66;;;11.66;100.00
49877;BME280;35771;48.978;9.294;2022-11-11T13:59:32;100550.09;;;11.65;100.00
49877;BME280;35771;48.978;9.294;2022-11-11T14:05:19;100548.28;;;11.74;100.00
49877;BME280;35771;48.978;9.294;2022-11-11T14:07:52;100566.03;;;11.78;100.00
49877;BME280;35771;48.978;9.294;2022-11-11T14:10:53;100576.66;;;11.89;100.00
49877;BME280;35771;48.978;9.294;2022-11-11T14:13:38;100548.88;;;11.59;100.00
49877;BME280;35771;48.978;9.294;2022-11-11T14:16:10;100569.16;;;11.65;100.00
49877;BME280;35771;48.978;9.294;2022-11-11T14:18:39;100544.91;;;11.54;100.00
49877;BME280;35771;48.978;9.294;2022-11-11T14:21:07;100568.78;;;11.60;100.00
49877;BME280;35771;48.978;9.294;2022-11-11T14:23:37;100569.75;;;11.77;100.00
49877;BME280;35771;48.978;9.294;2022-11-11T14:26:35;100564.88;;;11.80;100.00
49877;BME280;35771;48.978;9.294;2022-11-11T14:29:02;100574.06;;;11.79;100.00
49877;BME280;35771;48.978;9.294;2022-11-11T14:31:49;100559.59;;;11.61;100.00
49877;BME280;35771;48.978;9.294;2022-11-11T14:34:36;100571.81;;;11.57;100.00
49877;BME280;35771;48.978;9.294;2022-11-11T14:37:17;100575.03;;;11.52;100.00
49877;BME280;35771;48.978;9.294;2022-11-11T14:39:51;100556.59;;;11.46;100.00
49877;BME280;35771;48.978;9.294;2022-11-11T14:42:49;100550.09;;;11.47;100.00
49877;BME280;35771;48.978;9.294;2022-11-11T14:51:46;100554.19;;;11.25;100.00
49877;BME280;35771;48.978;9.294;2022-11-11T14:54:21;100578.06;;;11.31;100.00
49877;BME280;35771;48.978;9.294;2022-11-11T14:56:59;100554.00;;;11.08;100.00
49877;BME280;35771;48.978;9.294;2022-11-11T14:59:30;100545.22;;;10.96;100.00
49877;BME280;35771;48.978;9.294;2022-11-11T15:01:58;100559.03;;;11.03;100.00
49877;BME280;35771;48.978;9.294;2022-11-11T15:04:26;100562.50;;;11.05;100.00
49877;BME280;35771;48.978;9.294;2022-11-11T15:06:57;100564.78;;;11.00;100.00
49877;BME280;35771;48.978;9.294;2022-11-11T15:09:49;100548.06;;;10.77;100.00
49877;BME280;35771;48.978;9.294;2022-11-11T15:12:28;100554.72;;;10.65;100.00
49877;BME280;35771;48.978;9.294;2022-11-11T15:15:09;100563.94;;;10.54;100.00
49877;BME280;35771;48.978;9.294;2022-11-11T15:17:44;100588.53;;;10.52;100.00
49877;BME280;35771;48.978;9.294;2022-11-11T15:20:39;100574.13;;;10.32;100.00
49877;BME280;35771;48.978;9.294;2022-11-11T15:23:16;100579.16;;;10.37;100.00
49877;BME280;35771;48.978;9.294;2022-11-11T15:25:49;100572.06;;;10.16;100.00
49877;BME280;35771;48.978;9.294;2022-11-11T15:28:32;100575.63;;;10.17;100.00
49877;BME280;35771;48.978;9.294;2022-11-11T15:31:12;100583.44;;;10.30;100.00
49877;BME280;35771;48.978;9.294;2022-11-11T15:33:49;100581.16;;;10.25;100.00
49877;BME280;35771;48.978;9.294;2022-11-11T15:36:29;100567.19;;;10.10;100.00
49877;BME280;35771;48.978;9.294;2022-11-11T15:39:03;100568.75;;;10.22;100.00
49877;BME280;35771;48.978;9.294;2022-11-11T15:41:35;100568.91;;;10.11;100.00
49877;BME280;35771;48.978;9.294;2022-11-11T15:44:17;100576.19;;;10.20;100.00
49877;BME280;35771;48.978;9.294;2022-11-11T15:46:47;100553.50;;;9.92;100.00
49877;BME280;35771;48.978;9.294;2022-11-11T15:49:41;100586.44;;;9.79;100.00
49877;BME280;35771;48.978;9.294;2022-11-11T15:52:28;100586.88;;;9.74;100.00
49877;BME280;35771;48.978;9.294;2022-11-11T15:54:57;100564.59;;;9.42;100.00
49877;BME280;35771;48.978;9.294;2022-11-11T15:57:25;100567.88;;;9.16;100.00
49877;BME280;35771;48.978;9.294;2022-11-11T15:59:53;100570.13;;;9.01;100.00
49877;BME280;35771;48.978;9.294;2022-11-11T16:02:22;100559.84;;;8.95;100.00
49877;BME280;35771;48.978;9.294;2022-11-11T16:04:52;100596.84;;;8.96;100.00
49877;BME280;35771;48.978;9.294;2022-11-11T16:07:21;100578.75;;;8.65;100.00
49877;BME280;35771;48.978;9.294;2022-11-11T16:09:48;100596.03;;;8.64;100.00
49877;BME280;35771;48.978;9.294;2022-11-11T16:12:18;100594.00;;;8.57;100.00
49877;BME280;35771;48.978;9.294;2022-11-11T16:14:48;100585.97;;;8.45;100.00
49877;BME280;35771;48.978;9.294;2022-11-11T16:17:18;100562.56;;;8.23;100.00
49877;BME280;35771;48.978;9.294;2022-11-11T16:19:48;100557.41;;;8.10;100.00
49877;BME280;35771;48.978;9.294;2022-11-11T16:22:18;100538.06;;;7.94;100.00
49877;BME280;35771;48.978;9.294;2022-11-11T16:24:46;100559.72;;;7.94;100.00
49877;BME280;35771;48.978;9.294;2022-11-11T16:27:16;100579.53;;;7.94;100.00
49877;BME280;35771;48.978;9.294;2022-11-11T16:29:43;100573.59;;;7.79;100.00
49877;BME280;35771;48.978;9.294;2022-11-11T16:32:34;100567.06;;;7.61;100.00
49877;BME280;35771;48.978;9.294;2022-11-11T16:35:24;100573.28;;;7.52;100.00
49877;BME280;35771;48.978;9.294;2022-11-11T16:37:52;100570.31;;;7.55;100.00
49877;BME280;35771;48.978;9.294;2022-11-11T16:40:35;100560.19;;;7.36;100.00
49877;BME280;35771;48.978;9.294;2022-11-11T16:43:24;100553.50;;;7.19;100.00
49877;BME280;35771;48.978;9.294;2022-11-11T16:45:54;100572.88;;;7.24;100.00
49877;BME280;35771;48.978;9.294;2022-11-11T16:48:45;100579.94;;;7.15;100.00
49877;BME280;35771;48.978;9.294;2022-11-11T16:51:19;100575.41;;;7.04;100.00
49877;BME280;35771;48.978;9.294;2022-11-11T16:53:51;100565.53;;;6.82;100.00
49877;BME280;35771;48.978;9.294;2022-11-11T16:56:21;100568.25;;;6.82;100.00
49877;BME280;35771;48.978;9.294;2022-11-11T16:58:55;100555.47;;;6.73;100.00
49877;BME280;35771;48.978;9.294;2022-11-11T17:01:23;100568.13;;;6.72;100.00
49877;BME280;35771;48.978;9.294;2022-11-11T17:03:55;100545.78;;;6.59;100.00
49877;BME280;35771;48.978;9.294;2022-11-11T17:06:48;100555.50;;;6.62;100.00
49877;BME280;35771;48.978;9.294;2022-11-11T17:09:39;100567.53;;;6.58;100.00
49877;BME280;35771;48.978;9.294;2022-11-11T17:12:07;100562.75;;;6.50;100.00
49877;BME280;35771;48.978;9.294;2022-11-11T17:14:35;100570.50;;;6.43;100.00
49877;BME280;35771;48.978;9.294;2022-11-11T17:17:04;100585.38;;;6.49;100.00
49877;BME280;35771;48.978;9.294;2022-11-11T17:19:31;100570.38;;;6.33;100.00
49877;BME280;35771;48.978;9.294;2022-11-11T17:22:09;100576.25;;;6.27;100.00
49877;BME280;35771;48.978;9.294;2022-11-11T17:24:36;100578.34;;;6.24;100.00
49877;BME280;35771;48.978;9.294;2022-11-11T17:27:04;100603.66;;;6.34;100.00
49877;BME280;35771;48.978;9.294;2022-11-11T17:29:30;100587.31;;;6.24;100.00
49877;BME280;35771;48.978;9.294;2022-11-11T17:31:57;100598.59;;;6.18;100.00
49877;BME280;35771;48.978;9.294;2022-11-11T17:34:23;100610.88;;;6.11;100.00
49877;BME280;35771;48.978;9.294;2022-11-11T17:36:50;100606.34;;;6.11;100.00
49877;BME280;35771;48.978;9.294;2022-11-11T17:39:18;100588.72;;;5.94;100.00
49877;BME280;35771;48.978;9.294;2022-11-11T17:41:44;100606.31;;;6.00;100.00
49877;BME280;35771;48.978;9.294;2022-11-11T17:44:11;100595.25;;;5.92;100.00
49877;BME280;35771;48.978;9.294;2022-11-11T17:46:38;100587.59;;;5.74;100.00
49877;BME280;35771;48.978;9.294;2022-11-11T17:49:04;100603.53;;;5.77;100.00
49877;BME280;35771;48.978;9.294;2022-11-11T17:51:31;100609.03;;;5.76;100.00
